Time;durP1;ratioP1;P1;durP2;ratioP2;P2;SDS_P1;SDS_P2;PMS_P1;PMS_P2;Temp;Humidity;BMP_temperature;BMP_pressure;BME280_temperature;BME280_humidity;BME280_pressure;Samples;Min_cycle;Max_cycle;Signal;HPM_P1;HPM_P2
2023/05/02 00:00:33;;;;;;;20.83;18.63;;;14.80;99.90;;;;;;5013570;28;20392;-76
2023/05/02 00:02:59;;;;;;;20.17;18.07;;;14.80;99.90;;;;;;5014248;28;20420;-76
2023/05/02 00:05:25;;;;;;;21.13;19.03;;;14.80;99.90;;;;;;5011318;28;20424;-76
2023/05/02 00:07:51;;;;;;;21.97;19.70;;;14.80;99.90;;;;;;5012975;28;20517;-76
2023/05/02 00:10:18;;;;;;;21.80;19.40;;;14.80;99.90;;;;;;5013612;28;20510;-76
2023/05/02 00:12:43;;;;;;;22.50;20.10;;;14.80;99.90;;;;;;5014190;28;20455;-76
2023/05/02 00:15:09;;;;;;;21.63;19.10;;;14.80;99.90;;;;;;5012864;28;20905;-76
2023/05/02 00:17:36;;;;;;;22.30;19.20;;;14.80;99.90;;;;;;5012101;28;20200;-76
2023/05/02 00:20:05;;;;;;;22.70;19.87;;;14.80;99.90;;;;;;5013903;28;20420;-76
2023/05/02 00:22:31;;;;;;;22.10;19.80;;;14.80;99.90;;;;;;5013134;28;20542;-76
2023/05/02 00:24:57;;;;;;;22.67;20.40;;;14.80;99.90;;;;;;4996251;28;20562;-76
2023/05/02 00:27:23;;;;;;;20.77;18.77;;;14.80;99.90;;;;;;5012746;28;20907;-76
2023/05/02 00:29:51;;;;;;;22.57;20.17;;;14.80;99.90;;;;;;5013575;28;20414;-76
2023/05/02 00:32:17;;;;;;;22.33;19.30;;;14.70;99.90;;;;;;5011778;28;20462;-76
2023/05/02 00:34:43;;;;;;;21.43;19.23;;;14.70;99.90;;;;;;5008456;28;20447;-76
2023/05/02 00:37:09;;;;;;;22.53;19.17;;;14.70;99.90;;;;;;5011086;28;20428;-76
2023/05/02 00:39:35;;;;;;;23.50;19.80;;;14.60;99.90;;;;;;5012853;28;20188;-76
2023/05/02 00:42:01;;;;;;;19.43;16.90;;;14.60;99.90;;;;;;5012808;28;20432;-76
2023/05/02 00:44:27;;;;;;;24.33;19.17;;;14.60;99.90;;;;;;5011935;28;20464;-76
2023/05/02 00:46:54;;;;;;;24.50;20.03;;;14.60;99.90;;;;;;5013218;28;20919;-76
2023/05/02 00:49:20;;;;;;;26.70;21.13;;;14.50;99.90;;;;;;5011639;28;20517;-76
2023/05/02 00:51:46;;;;;;;23.27;20.90;;;14.50;99.90;;;;;;5012792;28;20547;-76
2023/05/02 00:54:12;;;;;;;26.00;21.63;;;14.50;99.90;;;;;;5013056;28;20180;-76
2023/05/02 00:56:39;;;;;;;23.57;20.97;;;14.50;99.90;;;;;;5011445;28;20203;-76
2023/05/02 00:59:07;;;;;;;25.10;22.13;;;14.50;99.90;;;;;;5012957;28;20900;-76
2023/05/02 01:01:47;;;;;;;22.23;19.93;;;14.50;99.90;;;;;;5012473;28;20486;-76
2023/05/02 01:04:39;;;;;;;26.80;20.00;;;14.50;99.90;;;;;;5012500;28;20482;-76
2023/05/02 01:07:18;;;;;;;21.77;19.47;;;14.50;99.90;;;;;;5012667;28;20802;-76
2023/05/02 01:10:21;;;;;;;24.83;21.07;;;14.40;99.90;;;;;;5013247;28;20477;-76
2023/05/02 01:13:09;;;;;;;23.50;20.07;;;14.40;99.90;;;;;;5011594;28;20494;-76
2023/05/02 01:15:37;;;;;;;23.47;20.07;;;14.40;99.90;;;;;;5011162;28;20502;-76
2023/05/02 01:18:05;;;;;;;25.23;21.83;;;14.40;99.90;;;;;;5012926;28;20449;-76
2023/05/02 01:20:35;;;;;;;24.83;22.13;;;14.30;99.90;;;;;;5008985;28;20432;-76
2023/05/02 01:23:09;;;;;;;26.13;22.50;;;14.30;99.90;;;;;;5008778;28;20478;-76
2023/05/02 01:25:35;;;;;;;25.83;21.60;;;14.30;99.90;;;;;;5008956;28;20520;-76
2023/05/02 01:28:49;;;;;;;25.77;23.00;;;14.30;99.90;;;;;;5012856;28;20410;-76
2023/05/02 01:31:15;;;;;;;29.17;23.93;;;14.30;99.90;;;;;;5009495;28;20864;-76
2023/05/02 01:33:43;;;;;;;30.50;24.27;;;14.30;99.90;;;;;;5012153;28;20454;-76
2023/05/02 01:36:10;;;;;;;28.03;23.20;;;14.20;99.90;;;;;;5012747;28;20873;-76
2023/05/02 01:38:38;;;;;;;28.57;23.03;;;14.20;99.90;;;;;;5011020;28;20418;-76
2023/05/02 01:41:06;;;;;;;30.93;25.63;;;14.20;99.90;;;;;;5012635;28;20438;-76
2023/05/02 01:43:37;;;;;;;28.17;23.90;;;14.30;99.90;;;;;;5009514;28;20769;-76
2023/05/02 01:46:05;;;;;;;32.27;24.47;;;14.30;99.90;;;;;;5010667;28;20427;-76
2023/05/02 01:48:32;;;;;;;32.50;24.90;;;14.30;99.90;;;;;;5011743;28;20444;-76
2023/05/02 01:50:58;;;;;;;30.93;25.20;;;14.30;99.90;;;;;;5011169;28;20475;-76
2023/05/02 01:53:27;;;;;;;30.00;24.90;;;14.30;99.90;;;;;;5010777;28;20466;-76
2023/05/02 01:55:54;;;;;;;31.43;24.97;;;14.40;99.90;;;;;;4996135;28;20537;-76
2023/05/02 01:58:20;;;;;;;29.27;24.90;;;14.40;99.90;;;;;;5012055;28;20546;-77
2023/05/02 02:00:47;;;;;;;30.53;24.73;;;14.40;99.90;;;;;;5012388;28;20766;-76
2023/05/02 02:03:15;;;;;;;30.37;24.00;;;14.40;99.90;;;;;;5012642;28;20516;-76
2023/05/02 02:05:42;;;;;;;32.60;25.63;;;14.40;99.90;;;;;;5011323;28;21252;-76
2023/05/02 02:08:08;;;;;;;33.00;25.63;;;14.40;99.90;;;;;;5012355;28;20406;-76
2023/05/02 02:10:42;;;;;;;32.97;26.40;;;14.40;99.90;;;;;;5009498;28;20516;-76
2023/05/02 02:13:23;;;;;;;33.60;25.60;;;14.40;99.90;;;;;;5012327;28;20188;-75
2023/05/02 02:15:52;;;;;;;31.13;25.77;;;14.40;99.90;;;;;;5011551;28;20433;-76
2023/05/02 02:18:25;;;;;;;32.93;24.83;;;14.40;99.90;;;;;;5012024;28;20410;-75
2023/05/02 02:20:52;;;;;;;34.43;27.27;;;14.50;99.90;;;;;;5010353;28;20460;-75
2023/05/02 02:23:21;;;;;;;33.00;25.10;;;14.50;99.90;;;;;;5012049;28;20419;-76
2023/05/02 02:25:49;;;;;;;33.07;25.70;;;14.40;99.90;;;;;;5012182;28;20878;-76
2023/05/02 02:28:15;;;;;;;35.83;26.30;;;14.40;99.90;;;;;;5012102;28;20423;-76
2023/05/02 02:30:41;;;;;;;37.80;28.33;;;14.40;99.90;;;;;;5011341;28;20908;-76
2023/05/02 02:33:06;;;;;;;35.60;26.97;;;14.40;99.90;;;;;;5010723;28;20546;-76
2023/05/02 02:35:41;;;;;;;40.20;29.47;;;14.40;99.90;;;;;;5011334;28;20184;-76
2023/05/02 02:38:28;;;;;;;41.27;30.87;;;14.30;99.90;;;;;;5011053;28;20198;-76
2023/05/02 02:41:11;;;;;;;41.73;30.47;;;14.30;99.90;;;;;;5011738;28;20483;-76
2023/05/02 02:43:40;;;;;;;45.50;32.43;;;14.30;99.90;;;;;;5011608;28;20438;-76
2023/05/02 02:46:20;;;;;;;45.90;32.87;;;14.20;99.90;;;;;;5015761;28;20961;-76
2023/05/02 02:48:55;;;;;;;48.20;33.00;;;14.20;99.90;;;;;;5015261;28;20398;-76
2023/05/02 02:51:44;;;;;;;44.53;31.33;;;14.10;99.90;;;;;;5015076;28;20472;-76
2023/05/02 02:54:39;;;;;;;44.53;30.50;;;14.20;99.90;;;;;;5016042;28;20448;-76
2023/05/02 02:57:14;;;;;;;42.10;30.23;;;14.10;99.90;;;;;;5014341;28;20933;-76
2023/05/02 02:59:51;;;;;;;37.97;28.97;;;14.10;99.90;;;;;;5014917;28;20407;-76
2023/05/02 03:02:21;;;;;;;38.20;27.00;;;14.10;99.90;;;;;;5015583;28;20397;-76
2023/05/02 03:04:51;;;;;;;35.40;26.67;;;14.10;99.90;;;;;;5014170;28;20449;-76
2023/05/02 03:07:17;;;;;;;37.80;28.03;;;14.10;99.90;;;;;;5015281;28;20423;-76
2023/05/02 03:09:45;;;;;;;36.13;26.23;;;14.10;99.90;;;;;;5013613;28;20472;-76
2023/05/02 03:12:11;;;;;;;37.13;26.33;;;14.10;99.90;;;;;;5015182;28;20202;-76
2023/05/02 03:14:37;;;;;;;33.00;25.63;;;14.10;99.90;;;;;;5014462;28;20406;-76
2023/05/02 03:17:03;;;;;;;35.27;25.00;;;14.10;99.90;;;;;;5015189;28;20413;-76
2023/05/02 03:19:29;;;;;;;34.00;24.23;;;14.10;99.90;;;;;;5013406;28;20767;-76
2023/05/02 03:21:55;;;;;;;31.00;23.40;;;14.10;99.90;;;;;;5015070;28;20176;-76
2023/05/02 03:24:21;;;;;;;30.73;22.60;;;14.10;99.90;;;;;;5013951;28;20176;-76
2023/05/02 03:26:47;;;;;;;33.43;22.43;;;14.10;99.90;;;;;;5014414;28;20432;-77
2023/05/02 03:29:14;;;;;;;29.30;21.63;;;14.00;99.90;;;;;;5015044;28;20414;-76
2023/05/02 03:31:40;;;;;;;27.73;21.97;;;14.10;99.90;;;;;;5013987;28;20177;-76
2023/05/02 03:34:05;;;;;;;27.70;20.80;;;14.10;99.90;;;;;;5014879;28;20402;-76
2023/05/02 03:36:31;;;;;;;27.83;20.83;;;14.10;99.90;;;;;;5012941;28;20180;-76
2023/05/02 03:38:57;;;;;;;28.07;21.03;;;14.10;99.90;;;;;;5014689;28;20179;-76
2023/05/02 03:41:23;;;;;;;29.30;21.70;;;14.10;99.90;;;;;;5014567;28;20738;-76
2023/05/02 03:43:50;;;;;;;28.57;21.63;;;14.10;99.90;;;;;;5014337;28;20174;-77
2023/05/02 03:46:16;;;;;;;28.03;20.73;;;14.10;99.90;;;;;;5014667;28;20472;-76
2023/05/02 03:48:42;;;;;;;28.37;21.73;;;14.10;99.90;;;;;;5012786;28;20420;-76
2023/05/02 03:51:08;;;;;;;29.40;20.10;;;14.10;99.90;;;;;;5014475;28;20443;-76
2023/05/02 03:53:35;;;;;;;29.80;19.50;;;14.10;99.90;;;;;;5011970;28;20516;-76
2023/05/02 03:56:01;;;;;;;25.70;20.40;;;14.10;99.90;;;;;;5014333;28;20418;-76
2023/05/02 03:58:27;;;;;;;28.17;20.77;;;14.10;99.90;;;;;;5012959;28;20429;-76
2023/05/02 04:00:54;;;;;;;24.50;19.43;;;14.10;99.90;;;;;;5014478;28;20184;-76
2023/05/02 04:03:20;;;;;;;26.50;20.07;;;14.10;99.90;;;;;;5013014;28;20767;-76
2023/05/02 04:05:46;;;;;;;23.77;18.20;;;14.10;99.90;;;;;;5013467;28;20394;-76
2023/05/02 04:08:12;;;;;;;27.00;18.67;;;14.10;99.90;;;;;;5014295;28;20886;-76
2023/05/02 04:10:38;;;;;;;25.30;18.57;;;14.10;99.90;;;;;;5013472;28;20179;-76
2023/05/02 04:13:03;;;;;;;26.17;21.40;;;14.10;99.90;;;;;;5013996;28;20533;-76
2023/05/02 04:15:32;;;;;;;26.20;19.33;;;14.10;99.90;;;;;;5011298;28;20180;-75
2023/05/02 04:17:58;;;;;;;24.80;19.20;;;14.10;99.90;;;;;;5012823;28;20177;-76
2023/05/02 04:20:24;;;;;;;21.93;17.57;;;14.00;99.90;;;;;;5013188;28;20930;-76
2023/05/02 04:22:50;;;;;;;22.50;16.97;;;14.10;99.90;;;;;;5013621;28;21088;-76
2023/05/02 04:25:16;;;;;;;22.17;16.83;;;14.10;99.90;;;;;;5013921;28;20497;-76
2023/05/02 04:27:42;;;;;;;21.67;17.30;;;14.10;99.90;;;;;;5011893;28;20678;-76
2023/05/02 04:30:11;;;;;;;20.63;16.17;;;14.10;99.90;;;;;;5012788;28;20504;-76
2023/05/02 04:32:37;;;;;;;20.77;16.03;;;14.10;99.90;;;;;;4998324;28;20458;-76
2023/05/02 04:35:03;;;;;;;22.37;17.60;;;14.10;99.90;;;;;;4994217;28;20395;-76
2023/05/02 04:37:29;;;;;;;21.73;18.07;;;14.10;99.90;;;;;;4992169;28;20432;-76
2023/05/02 04:39:55;;;;;;;22.93;18.10;;;14.10;99.90;;;;;;4987977;28;20427;-76
2023/05/02 04:42:20;;;;;;;25.50;18.20;;;14.10;99.90;;;;;;4994016;28;20744;-76
2023/05/02 04:44:47;;;;;;;18.00;15.87;;;14.10;99.90;;;;;;5008800;28;20179;-76
2023/05/02 04:47:13;;;;;;;22.10;15.87;;;14.10;99.90;;;;;;5010042;28;20179;-74
2023/05/02 04:49:39;;;;;;;17.60;15.00;;;14.10;99.90;;;;;;5011312;28;20489;-74
2023/05/02 04:52:05;;;;;;;20.13;15.87;;;14.10;99.90;;;;;;5011937;28;20268;-74
2023/05/02 04:54:34;;;;;;;21.93;16.13;;;14.20;99.90;;;;;;5011693;28;20434;-74
2023/05/02 04:57:02;;;;;;;18.73;16.63;;;14.10;99.90;;;;;;5013064;28;20199;-75
2023/05/02 04:59:29;;;;;;;20.07;15.00;;;14.10;99.90;;;;;;5010853;28;20546;-74
2023/05/02 05:01:55;;;;;;;19.30;15.50;;;14.00;99.90;;;;;;5010476;28;20480;-74
2023/05/02 05:04:21;;;;;;;17.10;14.47;;;14.00;99.90;;;;;;5012583;28;20433;-74
2023/05/02 05:06:48;;;;;;;19.03;15.93;;;14.00;99.90;;;;;;5010247;28;20415;-74
2023/05/02 05:09:14;;;;;;;20.70;16.50;;;14.00;99.90;;;;;;5012053;28;20622;-74
2023/05/02 05:11:41;;;;;;;23.70;16.13;;;14.00;99.90;;;;;;5010723;28;20458;-74
2023/05/02 05:14:08;;;;;;;19.77;16.00;;;14.00;99.90;;;;;;5011879;28;20431;-74
2023/05/02 05:16:33;;;;;;;20.83;15.20;;;14.00;99.90;;;;;;5012166;28;20462;-74
2023/05/02 05:19:00;;;;;;;19.90;16.00;;;14.00;99.90;;;;;;5011146;28;20447;-74
2023/05/02 05:21:26;;;;;;;18.47;15.70;;;14.00;99.90;;;;;;5012653;28;20192;-74
2023/05/02 05:23:52;;;;;;;18.83;15.10;;;14.00;99.90;;;;;;5011283;28;20418;-74
2023/05/02 05:26:18;;;;;;;20.03;15.90;;;14.00;99.90;;;;;;5012775;28;20249;-74
2023/05/02 05:28:46;;;;;;;18.20;14.90;;;14.00;99.90;;;;;;5010890;28;20434;-74
2023/05/02 05:31:15;;;;;;;17.60;15.10;;;14.00;99.90;;;;;;5011716;28;20441;-75
2023/05/02 05:33:41;;;;;;;17.80;14.40;;;14.00;99.90;;;;;;5010182;28;20446;-75
2023/05/02 05:36:09;;;;;;;21.83;16.10;;;14.00;99.90;;;;;;5012048;28;20484;-75
2023/05/02 05:38:36;;;;;;;24.23;15.23;;;13.90;99.90;;;;;;5011898;28;20177;-75
2023/05/02 05:41:02;;;;;;;21.50;15.93;;;13.90;99.90;;;;;;5013033;28;20967;-76
2023/05/02 05:43:28;;;;;;;18.23;15.77;;;13.90;99.90;;;;;;5011759;28;20825;-74
2023/05/02 05:45:55;;;;;;;20.37;15.77;;;13.90;99.90;;;;;;5010038;28;20422;-75
2023/05/02 05:48:21;;;;;;;21.03;16.93;;;13.90;99.90;;;;;;5011827;28;20425;-76
2023/05/02 05:50:47;;;;;;;18.60;14.73;;;14.10;99.90;;;;;;5012351;28;20458;-75
2023/05/02 05:53:13;;;;;;;17.50;15.23;;;14.40;99.90;;;;;;5010512;28;20598;-75
2023/05/02 05:55:39;;;;;;;18.37;15.47;;;14.70;99.90;;;;;;5012272;28;20175;-73
2023/05/02 05:58:05;;;;;;;17.27;14.10;;;14.90;99.90;;;;;;5010959;28;20475;-74
2023/05/02 06:00:38;;;;;;;15.80;11.63;;;15.20;99.90;;;;;;5011767;28;20479;-73
2023/05/02 06:03:04;;;;;;;11.27;9.40;;;15.50;99.90;;;;;;5012979;28;20408;-74
2023/05/02 06:05:30;;;;;;;9.83;8.70;;;15.70;99.90;;;;;;5012805;28;20523;-75
2023/05/02 06:07:57;;;;;;;8.80;7.90;;;15.90;99.90;;;;;;5012863;28;20405;-75
2023/05/02 06:10:26;;;;;;;7.10;6.50;;;16.20;99.90;;;;;;5007009;28;20983;-74
2023/05/02 06:12:52;;;;;;;7.93;7.23;;;16.30;99.90;;;;;;5008249;28;20548;-75
2023/05/02 06:15:18;;;;;;;7.53;6.83;;;16.40;99.90;;;;;;5012698;28;20897;-74
2023/05/02 06:17:44;;;;;;;7.90;7.20;;;16.30;99.90;;;;;;5007884;28;20193;-72
2023/05/02 06:20:10;;;;;;;7.43;6.73;;;16.10;99.90;;;;;;4997412;28;20175;-72
2023/05/02 06:22:36;;;;;;;7.93;7.20;;;15.80;99.90;;;;;;4996490;28;20198;-72
2023/05/02 06:25:03;;;;;;;8.60;6.90;;;15.50;99.90;;;;;;5009730;28;20892;-73
2023/05/02 06:27:29;;;;;;;7.30;6.70;;;15.30;99.90;;;;;;5014344;28;20806;-73
2023/05/02 06:29:55;;;;;;;7.97;6.43;;;15.00;99.90;;;;;;5015283;28;20458;-76
2023/05/02 06:32:21;;;;;;;7.73;7.03;;;14.90;99.90;;;;;;5013985;28;20299;-75
2023/05/02 06:34:47;;;;;;;7.47;6.87;;;14.70;99.90;;;;;;4995997;28;20172;-74
2023/05/02 06:37:12;;;;;;;7.33;6.73;;;14.50;99.90;;;;;;4995769;28;20409;-75
2023/05/02 06:39:38;;;;;;;7.57;6.93;;;14.40;99.90;;;;;;4995877;28;20193;-76
2023/05/02 06:42:04;;;;;;;9.13;7.40;;;14.30;99.90;;;;;;4996831;28;20175;-75
2023/05/02 06:44:30;;;;;;;7.50;6.63;;;14.30;99.90;;;;;;5003904;28;20180;-74
2023/05/02 06:46:56;;;;;;;7.30;6.60;;;14.10;99.90;;;;;;5014609;28;20163;-73
2023/05/02 06:49:22;;;;;;;7.40;6.90;;;14.10;99.90;;;;;;5015529;28;20434;-73
2023/05/02 06:51:47;;;;;;;6.90;6.40;;;14.00;99.90;;;;;;5002541;28;20234;-74
2023/05/02 06:54:16;;;;;;;6.00;5.40;;;14.00;99.90;;;;;;5016083;28;20477;-75
2023/05/02 06:56:42;;;;;;;7.07;5.87;;;13.90;99.90;;;;;;5015387;28;20210;-73
2023/05/02 06:59:08;;;;;;;6.30;5.70;;;14.00;99.90;;;;;;5015634;28;20908;-74
2023/05/02 07:01:34;;;;;;;6.47;5.87;;;13.90;99.90;;;;;;5015622;28;20414;-74
2023/05/02 07:04:02;;;;;;;6.70;6.00;;;13.90;99.90;;;;;;4998734;28;20678;-74
2023/05/02 07:06:28;;;;;;;6.70;6.20;;;14.00;99.90;;;;;;5014707;28;20417;-74
2023/05/02 07:08:54;;;;;;;5.90;5.50;;;14.00;99.90;;;;;;5015193;28;20403;-74
2023/05/02 07:11:22;;;;;;;7.37;6.37;;;14.00;99.90;;;;;;5015865;28;20394;-73
2023/05/02 07:13:48;;;;;;;7.70;7.00;;;14.00;99.90;;;;;;5015079;28;20253;-74
2023/05/02 07:16:14;;;;;;;6.80;6.30;;;14.00;99.90;;;;;;5015669;28;20488;-74
2023/05/02 07:18:41;;;;;;;6.20;5.80;;;14.10;99.90;;;;;;5012857;28;20187;-73
2023/05/02 07:21:07;;;;;;;7.00;6.37;;;14.10;99.90;;;;;;5015008;28;20612;-74
2023/05/02 07:23:33;;;;;;;9.60;6.43;;;14.10;99.90;;;;;;5012637;28;20434;-73
2023/05/02 07:25:59;;;;;;;7.30;6.60;;;14.10;99.90;;;;;;4999414;28;20440;-74
2023/05/02 07:28:25;;;;;;;7.00;6.40;;;14.10;99.90;;;;;;4997672;28;20424;-74
2023/05/02 07:30:51;;;;;;;10.43;9.33;;;14.20;99.90;;;;;;5009485;28;20403;-74
2023/05/02 07:33:16;;;;;;;6.90;6.30;;;14.20;99.90;;;;;;5013104;28;20249;-74
2023/05/02 07:35:42;;;;;;;8.33;7.63;;;14.20;99.90;;;;;;5007432;28;20415;-73
2023/05/02 07:38:08;;;;;;;8.37;6.50;;;14.20;99.90;;;;;;4995639;28;20263;-73
2023/05/02 07:40:34;;;;;;;7.27;6.60;;;14.20;99.90;;;;;;5001897;28;20176;-74
2023/05/02 07:43:00;;;;;;;7.17;6.53;;;14.20;99.90;;;;;;5011088;28;20178;-73
2023/05/02 07:45:26;;;;;;;7.70;7.20;;;14.30;99.90;;;;;;5011967;28;20266;-74
2023/05/02 07:47:52;;;;;;;7.43;6.67;;;14.30;99.90;;;;;;5011066;28;20842;-74
2023/05/02 07:50:18;;;;;;;7.37;6.77;;;14.30;99.90;;;;;;5014533;28;20450;-75
2023/05/02 07:52:44;;;;;;;6.97;6.47;;;14.30;99.90;;;;;;4996175;28;20242;-75
2023/05/02 07:55:09;;;;;;;7.17;6.50;;;14.30;99.90;;;;;;5010182;28;20501;-75
2023/05/02 07:57:35;;;;;;;6.70;6.20;;;14.30;99.90;;;;;;4995315;28;20172;-75
2023/05/02 08:00:01;;;;;;;7.80;7.20;;;14.30;99.90;;;;;;4994694;28;20165;-75
2023/05/02 08:02:27;;;;;;;7.57;6.93;;;14.30;99.90;;;;;;4995181;28;20177;-75
2023/05/02 08:04:53;;;;;;;6.63;6.10;;;14.30;99.90;;;;;;4994554;28;20175;-75
2023/05/02 08:07:19;;;;;;;10.97;6.80;;;14.20;99.90;;;;;;4993857;28;20411;-75
2023/05/02 08:09:45;;;;;;;7.50;6.40;;;14.20;99.90;;;;;;4993197;28;20181;-75
2023/05/02 08:12:10;;;;;;;6.80;6.30;;;14.10;99.90;;;;;;4994973;28;20198;-75
2023/05/02 08:14:36;;;;;;;7.63;7.03;;;14.10;99.90;;;;;;5007287;28;20436;-75
2023/05/02 08:17:02;;;;;;;8.70;7.90;;;14.00;99.90;;;;;;5013993;28;20201;-75
2023/05/02 08:19:28;;;;;;;10.43;7.80;;;14.00;99.90;;;;;;5014531;28;20452;-75
2023/05/02 08:21:53;;;;;;;8.20;7.50;;;14.00;99.90;;;;;;5013854;28;20601;-74
2023/05/02 08:24:20;;;;;;;6.97;6.47;;;13.90;99.90;;;;;;5013872;28;20585;-74
2023/05/02 08:26:45;;;;;;;10.10;9.10;;;13.90;99.90;;;;;;5013010;28;20471;-74
2023/05/02 08:29:11;;;;;;;11.63;10.53;;;13.70;99.90;;;;;;5014318;28;20398;-75
2023/05/02 08:31:39;;;;;;;10.33;9.50;;;13.60;99.90;;;;;;5014127;28;20197;-75
2023/05/02 08:34:05;;;;;;;11.20;10.30;;;13.50;99.90;;;;;;5014046;28;20282;-75
2023/05/02 08:36:31;;;;;;;9.57;8.97;;;13.40;99.90;;;;;;5013963;28;20466;-75
2023/05/02 08:38:56;;;;;;;9.87;9.10;;;13.40;99.90;;;;;;5013434;28;20412;-74
2023/05/02 08:41:23;;;;;;;6.70;6.20;;;13.30;99.90;;;;;;5011975;28;20440;-75
2023/05/02 08:43:49;;;;;;;6.37;5.97;;;13.20;99.90;;;;;;5012525;28;20197;-74
2023/05/02 08:46:16;;;;;;;6.70;6.20;;;13.10;99.90;;;;;;5013963;28;20403;-75
2023/05/02 08:48:44;;;;;;;7.73;5.20;;;12.90;99.90;;;;;;5012916;28;20708;-75
2023/05/02 08:51:12;;;;;;;6.30;5.80;;;12.90;99.90;;;;;;5013501;28;20456;-74
2023/05/02 08:53:39;;;;;;;6.43;5.93;;;12.90;99.90;;;;;;5013625;28;20486;-74
2023/05/02 08:56:09;;;;;;;8.13;7.33;;;12.90;99.90;;;;;;5013111;28;20416;-75
2023/05/02 08:58:36;;;;;;;7.07;6.33;;;12.90;99.90;;;;;;5012465;28;20414;-75
2023/05/02 09:01:08;;;;;;;5.87;5.40;;;12.80;99.90;;;;;;5013066;28;20427;-74
2023/05/02 09:03:35;;;;;;;6.90;6.30;;;12.80;99.90;;;;;;5013726;28;20393;-75
2023/05/02 09:06:09;;;;;;;7.40;6.23;;;12.80;99.90;;;;;;5012924;28;20654;-75
2023/05/02 09:08:36;;;;;;;6.90;6.30;;;12.80;99.90;;;;;;5013534;28;20520;-74
2023/05/02 09:11:03;;;;;;;7.47;6.77;;;12.70;99.90;;;;;;5010875;28;20509;-74
2023/05/02 09:13:40;;;;;;;7.20;6.57;;;12.70;99.90;;;;;;5013412;28;20449;-75
2023/05/02 09:16:10;;;;;;;9.63;7.53;;;12.70;99.90;;;;;;5013038;28;20426;-75
2023/05/02 09:18:37;;;;;;;7.57;6.93;;;12.60;99.90;;;;;;5012135;28;20775;-75
2023/05/02 09:21:08;;;;;;;7.83;7.03;;;12.60;99.90;;;;;;5012906;28;20947;-75
2023/05/02 09:23:40;;;;;;;7.90;7.10;;;12.60;99.90;;;;;;5013258;28;20422;-75
2023/05/02 09:26:30;;;;;;;7.93;6.87;;;12.60;99.90;;;;;;5012943;28;20426;-74
2023/05/02 09:28:56;;;;;;;9.10;8.40;;;12.70;99.90;;;;;;5012618;28;20912;-75
2023/05/02 09:31:33;;;;;;;9.30;8.50;;;12.70;99.90;;;;;;5013134;28;20510;-75
2023/05/02 09:34:11;;;;;;;10.07;9.07;;;12.70;99.90;;;;;;5012201;28;20950;-75
2023/05/02 09:36:45;;;;;;;11.60;10.10;;;12.70;99.90;;;;;;5013068;28;20422;-74
2023/05/02 09:39:14;;;;;;;11.33;9.70;;;12.80;99.90;;;;;;5011988;28;20409;-75
2023/05/02 09:41:47;;;;;;;8.80;8.00;;;12.90;99.90;;;;;;5011500;28;20428;-75
2023/05/02 09:44:17;;;;;;;8.83;7.70;;;13.00;99.90;;;;;;5012624;28;20928;-75
2023/05/02 09:46:47;;;;;;;9.03;8.07;;;13.00;99.90;;;;;;5012657;28;20930;-75
2023/05/02 09:49:13;;;;;;;7.93;7.33;;;13.10;99.90;;;;;;5013160;28;20421;-75
2023/05/02 09:51:42;;;;;;;9.13;8.23;;;13.10;99.90;;;;;;5012574;28;20806;-75
2023/05/02 09:54:08;;;;;;;10.40;8.60;;;13.20;99.90;;;;;;5011966;28;20455;-74
2023/05/02 09:56:55;;;;;;;9.20;8.37;;;13.20;99.90;;;;;;5012863;28;20508;-75
2023/05/02 09:59:21;;;;;;;10.07;7.70;;;13.20;99.90;;;;;;5012838;28;20181;-74
2023/05/02 10:01:58;;;;;;;7.70;7.00;;;13.10;99.90;;;;;;5012203;28;20553;-74
2023/05/02 10:04:25;;;;;;;7.97;7.20;;;13.10;99.90;;;;;;5012739;28;20507;-75
2023/05/02 10:06:52;;;;;;;9.20;7.80;;;13.10;99.90;;;;;;5012132;28;20429;-75
2023/05/02 10:09:22;;;;;;;9.10;8.20;;;13.10;99.90;;;;;;5011016;28;20443;-75
2023/05/02 10:11:54;;;;;;;8.70;7.80;;;13.00;99.90;;;;;;5012134;28;20479;-74
2023/05/02 10:14:22;;;;;;;8.90;8.10;;;13.00;99.90;;;;;;5012480;28;20922;-75
2023/05/02 10:17:12;;;;;;;9.37;8.47;;;13.00;99.90;;;;;;5012059;28;20417;-75
2023/05/02 10:19:51;;;;;;;11.57;9.10;;;13.00;99.90;;;;;;5012031;28;20520;-75
2023/05/02 10:22:18;;;;;;;8.77;7.80;;;12.90;99.90;;;;;;5012786;28;20940;-75
2023/05/02 10:24:51;;;;;;;7.67;6.73;;;12.90;99.90;;;;;;5012603;28;20426;-74
2023/05/02 10:27:17;;;;;;;9.33;7.70;;;13.00;99.90;;;;;;5012602;28;20394;-74
2023/05/02 10:29:44;;;;;;;8.33;7.53;;;13.00;99.90;;;;;;5012265;28;20463;-74
2023/05/02 10:32:11;;;;;;;8.43;7.43;;;13.00;99.90;;;;;;5011855;28;20405;-75
2023/05/02 10:34:39;;;;;;;10.17;8.17;;;13.00;99.90;;;;;;5012514;28;20410;-75
2023/05/02 10:37:05;;;;;;;8.30;7.50;;;13.10;99.90;;;;;;5011858;28;20421;-74
2023/05/02 10:39:31;;;;;;;7.03;6.53;;;13.10;99.90;;;;;;5011686;28;21012;-75
2023/05/02 10:42:00;;;;;;;7.07;6.53;;;13.10;99.90;;;;;;5011644;28;20233;-74
2023/05/02 10:44:38;;;;;;;7.00;6.40;;;13.10;99.90;;;;;;5011534;28;20425;-75
2023/05/02 10:47:23;;;;;;;6.57;5.87;;;13.10;99.90;;;;;;5011766;28;20409;-75
2023/05/02 10:49:50;;;;;;;7.20;6.50;;;13.20;99.90;;;;;;5011497;28;20466;-75
2023/05/02 10:52:45;;;;;;;6.50;5.90;;;13.10;99.90;;;;;;5012431;28;20496;-75
2023/05/02 10:55:17;;;;;;;7.53;6.93;;;13.20;99.90;;;;;;4998735;28;20433;-75
2023/05/02 10:58:01;;;;;;;7.97;7.27;;;13.10;99.90;;;;;;5012529;28;20509;-75
2023/05/02 11:00:32;;;;;;;7.87;7.07;;;13.00;99.90;;;;;;5012549;28;20424;-75
2023/05/02 11:02:58;;;;;;;10.00;8.40;;;13.00;99.90;;;;;;5011421;28;20480;-75
2023/05/02 11:05:25;;;;;;;7.60;6.90;;;13.00;99.90;;;;;;5014911;28;20412;-75
2023/05/02 11:08:19;;;;;;;8.20;6.30;;;13.10;99.90;;;;;;5015272;28;20417;-75
2023/05/02 11:10:45;;;;;;;6.73;5.67;;;13.10;99.90;;;;;;5014801;28;20433;-75
2023/05/02 11:13:11;;;;;;;6.27;5.67;;;13.10;99.90;;;;;;5014964;28;20445;-75
2023/05/02 11:15:39;;;;;;;5.80;5.40;;;13.20;99.90;;;;;;5015284;28;20420;-75
2023/05/02 11:18:10;;;;;;;6.17;5.50;;;13.20;99.90;;;;;;5013706;28;20982;-75
2023/05/02 11:20:40;;;;;;;5.87;5.37;;;13.20;99.90;;;;;;5015776;28;20782;-75
2023/05/02 11:23:20;;;;;;;5.80;5.30;;;13.30;99.90;;;;;;5014819;28;20421;-75
2023/05/02 11:25:51;;;;;;;8.00;5.40;;;13.30;99.90;;;;;;5015558;28;20884;-75
2023/05/02 11:28:35;;;;;;;6.10;5.50;;;13.30;99.90;;;;;;5015134;28;20768;-75
2023/05/02 11:31:01;;;;;;;7.17;5.37;;;13.40;99.90;;;;;;5014698;28;20797;-75
2023/05/02 11:33:28;;;;;;;6.17;5.60;;;13.50;99.90;;;;;;5015337;28;20453;-75
2023/05/02 11:35:55;;;;;;;6.33;5.80;;;13.60;99.90;;;;;;5014373;28;20413;-75
2023/05/02 11:38:21;;;;;;;8.20;7.03;;;13.70;99.90;;;;;;5015293;28;20421;-75
2023/05/02 11:40:58;;;;;;;10.60;8.40;;;13.80;99.90;;;;;;5014251;28;20432;-75
2023/05/02 11:43:26;;;;;;;6.93;6.33;;;13.80;99.90;;;;;;5015064;28;20265;-75
2023/05/02 11:45:56;;;;;;;10.60;6.07;;;13.80;99.90;;;;;;5013970;28;20419;-75
2023/05/02 11:48:25;;;;;;;6.57;5.97;;;13.90;99.90;;;;;;5015049;28;20418;-75
2023/05/02 11:50:54;;;;;;;5.90;5.27;;;14.00;99.90;;;;;;5014043;28;20462;-75
2023/05/02 11:53:23;;;;;;;7.53;6.57;;;14.10;99.90;;;;;;5014772;28;20465;-75
2023/05/02 11:55:57;;;;;;;5.80;5.20;;;14.30;99.90;;;;;;5014831;28;20469;-75
2023/05/02 11:58:26;;;;;;;11.50;7.50;;;14.40;99.90;;;;;;5014876;28;20396;-75
2023/05/02 12:00:52;;;;;;;7.17;6.40;;;14.50;99.90;;;;;;5013882;28;20448;-75
2023/05/02 12:03:32;;;;;;;6.70;6.10;;;14.60;99.90;;;;;;5014299;28;20887;-75
2023/05/02 12:06:09;;;;;;;10.17;6.13;;;14.70;99.90;;;;;;5013890;28;20411;-75
2023/05/02 12:08:36;;;;;;;8.60;6.77;;;14.90;99.90;;;;;;5013284;28;20467;-75
2023/05/02 12:11:01;;;;;;;8.20;6.03;;;15.10;99.90;;;;;;5006533;28;20537;-75
2023/05/02 12:13:28;;;;;;;7.80;6.53;;;15.10;97.90;;;;;;5014624;28;20929;-75
2023/05/02 12:15:55;;;;;;;7.17;6.47;;;15.20;98.80;;;;;;5013557;28;20544;-75
2023/05/02 12:18:22;;;;;;;7.00;6.30;;;15.20;98.30;;;;;;5014609;28;20404;-75
2023/05/02 12:20:50;;;;;;;6.57;5.97;;;15.30;97.80;;;;;;5014664;28;20420;-75
2023/05/02 12:23:18;;;;;;;8.13;6.33;;;15.40;97.40;;;;;;5013480;28;20789;-75
2023/05/02 12:25:44;;;;;;;8.57;7.90;;;15.40;96.40;;;;;;5014333;28;20413;-75
2023/05/02 12:28:10;;;;;;;7.30;6.20;;;15.40;96.20;;;;;;5013657;28;20413;-75
2023/05/02 12:30:38;;;;;;;6.90;5.97;;;15.40;96.60;;;;;;5014242;28;20196;-75
2023/05/02 12:33:05;;;;;;;7.30;6.30;;;15.40;95.90;;;;;;5013447;28;20547;-75
2023/05/02 12:35:31;;;;;;;8.70;7.90;;;15.40;96.30;;;;;;5012125;28;20447;-75
2023/05/02 12:38:12;;;;;;;10.43;7.37;;;15.40;97.20;;;;;;5012322;28;20497;-74
2023/05/02 12:40:38;;;;;;;8.40;6.47;;;15.30;95.10;;;;;;5011340;28;20935;-75
2023/05/02 12:43:07;;;;;;;7.70;6.77;;;15.20;96.00;;;;;;5011013;28;20793;-75